createdAt,value
2018-08-23T00:00:39.265Z,19.60
2018-08-23T00:04:07.127Z,19.50
2018-08-23T00:07:31.571Z,19.40
2018-08-23T00:10:55.980Z,19.40
2018-08-23T00:14:20.449Z,19.30
2018-08-23T00:17:47.649Z,19.30
2018-08-23T00:21:17.163Z,19.20
2018-08-23T00:24:41.641Z,19.20
2018-08-23T00:28:06.598Z,19.10
2018-08-23T00:31:34.171Z,19.10
2018-08-23T00:34:58.825Z,19.00
2018-08-23T00:38:23.238Z,19.00
2018-08-23T00:41:52.792Z,18.90
2018-08-23T00:45:19.032Z,18.90
2018-08-23T00:48:43.965Z,18.90
2018-08-23T00:52:08.430Z,18.80
2018-08-23T00:55:32.867Z,18.80
2018-08-23T00:59:00.665Z,18.80
2018-08-23T01:02:25.050Z,18.70
2018-08-23T01:05:49.462Z,18.70
2018-08-23T01:09:14.546Z,18.70
2018-08-23T01:12:49.445Z,18.60
2018-08-23T01:16:14.906Z,18.50
2018-08-23T01:19:44.580Z,18.50
2018-08-23T01:23:09.132Z,18.30
2018-08-23T01:26:35.638Z,18.30
2018-08-23T01:30:00.111Z,18.20
2018-08-23T01:33:24.548Z,18.20
2018-08-23T01:36:48.994Z,18.10
2018-08-23T01:40:13.429Z,18.10
2018-08-23T01:43:37.883Z,18.10
2018-08-23T01:47:03.466Z,18.00
2018-08-23T01:50:28.175Z,17.90
2018-08-23T01:53:52.642Z,17.90
2018-08-23T01:57:22.404Z,17.90
2018-08-23T02:00:49.055Z,17.80
2018-08-23T02:04:13.566Z,17.80
2018-08-23T02:07:37.970Z,17.80
2018-08-23T02:11:02.478Z,17.70
2018-08-23T02:14:28.370Z,17.70
2018-08-23T02:17:58.881Z,17.70
2018-08-23T02:21:23.352Z,17.60
2018-08-23T02:24:49.501Z,17.50
2018-08-23T02:28:13.916Z,17.50
2018-08-23T02:31:38.494Z,17.50
2018-08-23T02:35:06.006Z,17.40
2018-08-23T02:38:30.693Z,17.40
2018-08-23T02:41:55.132Z,17.30
2018-08-23T02:45:19.578Z,17.30
2018-08-23T02:48:44.054Z,17.30
2018-08-23T02:52:08.503Z,17.20
2018-08-23T02:55:39.328Z,17.20
2018-08-23T02:59:06.653Z,17.20
2018-08-23T03:02:31.125Z,17.20
2018-08-23T03:05:55.603Z,17.10
2018-08-23T03:09:23.892Z,17.10
2018-08-23T03:12:48.394Z,17.10
2018-08-23T03:16:13.302Z,17.10
2018-08-23T03:19:37.775Z,17.10
2018-08-23T03:23:02.205Z,17.00
2018-08-23T03:26:26.609Z,17.00
2018-08-23T03:29:51.278Z,17.00
2018-08-23T03:33:15.719Z,16.90
2018-08-23T03:36:40.153Z,16.90
2018-08-23T03:40:04.875Z,16.90
2018-08-23T03:43:29.324Z,16.90
2018-08-23T03:46:55.120Z,16.90
2018-08-23T03:50:19.540Z,16.90
2018-08-23T03:53:49.450Z,16.80
2018-08-23T03:57:16.606Z,16.80
2018-08-23T04:01:00.419Z,16.70
2018-08-23T04:04:24.812Z,16.70
2018-08-23T04:07:49.239Z,16.70
2018-08-23T04:11:13.721Z,16.70
2018-08-23T04:14:38.505Z,16.70
2018-08-23T04:18:18.300Z,16.60
2018-08-23T04:21:42.719Z,16.60
2018-08-23T04:25:14.049Z,16.60
2018-08-23T04:28:38.605Z,16.50
2018-08-23T04:32:04.451Z,16.50
2018-08-23T04:35:29.849Z,16.40
2018-08-23T04:38:58.366Z,16.50
2018-08-23T04:42:22.809Z,16.50
2018-08-23T04:45:47.293Z,16.50
2018-08-23T04:49:11.810Z,16.40
2018-08-23T04:52:36.228Z,16.40
2018-08-23T04:56:00.635Z,16.40
2018-08-23T04:59:25.096Z,16.40
2018-08-23T05:02:49.731Z,16.40
2018-08-23T05:06:14.241Z,16.40
2018-08-23T05:09:38.668Z,16.50
2018-08-23T05:13:03.126Z,16.50
2018-08-23T05:16:27.600Z,16.50
2018-08-23T05:19:52.110Z,16.50
2018-08-23T05:23:16.595Z,16.60
2018-08-23T05:26:41.407Z,16.60
2018-08-23T05:30:06.062Z,16.70
2018-08-23T05:33:30.492Z,16.80
2018-08-23T05:36:54.912Z,16.90
2018-08-23T05:40:19.337Z,16.90
2018-08-23T05:43:43.844Z,17.00
2018-08-23T05:47:08.308Z,17.10
2018-08-23T05:50:36.021Z,17.20
2018-08-23T05:54:00.448Z,17.30
2018-08-23T05:57:24.852Z,17.40
2018-08-23T06:00:49.264Z,17.50
2018-08-23T06:04:14.404Z,17.70
2018-08-23T06:07:38.873Z,17.80
2018-08-23T06:11:09.079Z,17.80
2018-08-23T06:14:33.480Z,17.90
2018-08-23T06:17:57.915Z,18.00
2018-08-23T06:21:22.414Z,18.10
2018-08-23T06:24:46.821Z,18.20
2018-08-23T06:28:24.203Z,18.30
2018-08-23T06:32:00.487Z,18.40
2018-08-23T06:35:26.485Z,18.50
2018-08-23T06:38:56.205Z,18.70
2018-08-23T06:42:21.043Z,18.70
2018-08-23T06:45:45.469Z,18.90
2018-08-23T06:49:09.897Z,19.00
2018-08-23T06:52:39.487Z,19.10
2018-08-23T06:56:03.917Z,19.20
2018-08-23T06:59:28.436Z,19.30
2018-08-23T07:02:52.872Z,19.50
2018-08-23T07:06:17.339Z,19.50
2018-08-23T07:09:41.762Z,19.60
2018-08-23T07:13:07.268Z,19.70
2018-08-23T07:16:32.507Z,19.80
2018-08-23T07:20:00.321Z,19.90
2018-08-23T07:23:34.609Z,20.10
2018-08-23T07:26:59.013Z,20.20
2018-08-23T07:30:23.452Z,20.40
2018-08-23T07:33:52.643Z,20.50
2018-08-23T07:37:18.394Z,20.60
2018-08-23T07:40:42.802Z,20.70
2018-08-23T07:44:07.279Z,20.80
2018-08-23T07:47:32.528Z,20.90
2018-08-23T07:50:57.011Z,20.90
2018-08-23T07:54:23.220Z,21.00
2018-08-23T07:57:47.812Z,21.10
2018-08-23T08:01:14.224Z,21.20
2018-08-23T08:04:38.639Z,21.30
2018-08-23T08:08:03.253Z,21.50
2018-08-23T08:11:30.096Z,21.50
2018-08-23T08:14:54.612Z,21.70
2018-08-23T08:18:22.786Z,21.70
2018-08-23T08:21:47.282Z,21.90
2018-08-23T08:25:19.129Z,22.10
2018-08-23T08:28:43.531Z,22.20
2018-08-23T08:32:10.050Z,22.40
2018-08-23T08:35:34.500Z,22.50
2018-08-23T08:38:59.371Z,22.70
2018-08-23T08:42:34.002Z,22.80
2018-08-23T08:45:59.509Z,22.80
2018-08-23T08:49:23.995Z,22.90
2018-08-23T08:52:48.396Z,23.10
2018-08-23T08:56:12.884Z,23.30
2018-08-23T08:59:37.329Z,23.30
2018-08-23T09:03:01.753Z,23.40
2018-08-23T09:06:46.669Z,23.40
2018-08-23T09:10:10.778Z,23.20
2018-08-23T09:13:40.339Z,23.50
2018-08-23T09:17:26.888Z,23.70
2018-08-23T09:20:54.895Z,24.00
2018-08-23T09:24:28.745Z,24.30
2018-08-23T09:27:53.165Z,24.30
2018-08-23T09:31:17.679Z,24.50
2018-08-23T09:34:42.645Z,24.80
2018-08-23T09:38:14.895Z,25.20
2018-08-23T09:41:39.451Z,25.70
2018-08-23T09:45:17.067Z,26.00
2018-08-23T09:48:41.485Z,26.20
2018-08-23T09:52:11.571Z,26.00
2018-08-23T09:55:35.968Z,25.40
2018-08-23T09:59:00.513Z,25.20
2018-08-23T10:02:30.144Z,25.70
2018-08-23T10:05:59.745Z,26.00
2018-08-23T10:09:24.533Z,26.30
2018-08-23T10:12:54.274Z,27.00
2018-08-23T10:16:24.032Z,26.90
2018-08-23T10:19:53.605Z,26.50
2018-08-23T10:23:26.095Z,26.30
2018-08-23T10:26:50.478Z,26.30
2018-08-23T10:30:14.973Z,26.50
2018-08-23T10:33:39.396Z,27.30
2018-08-23T10:37:03.760Z,28.20
2018-08-23T10:40:28.200Z,29.10
2018-08-23T10:43:52.609Z,29.70
2018-08-23T10:47:22.163Z,30.10
2018-08-23T10:50:48.196Z,29.40
2018-08-23T10:54:12.597Z,28.80
2018-08-23T10:57:37.034Z,27.60
2018-08-23T11:01:01.532Z,28.10
2018-08-23T11:04:25.946Z,29.50
2018-08-23T11:08:57.086Z,30.70
2018-08-23T11:12:26.653Z,31.70
2018-08-23T11:15:55.130Z,31.90
2018-08-23T11:19:24.751Z,31.20
2018-08-23T11:22:49.221Z,30.60
2018-08-23T11:26:22.182Z,30.10
2018-08-23T11:29:46.660Z,29.90
2018-08-23T11:33:11.103Z,29.40
2018-08-23T11:36:35.521Z,28.90
2018-08-23T11:39:59.989Z,29.10
2018-08-23T11:43:24.423Z,29.50
2018-08-23T11:46:48.966Z,29.70
2018-08-23T11:50:13.391Z,29.90
2018-08-23T11:53:38.056Z,30.20
2018-08-23T11:57:02.245Z,30.30
2018-08-23T12:00:26.733Z,30.40
2018-08-23T12:03:51.191Z,30.00
2018-08-23T12:07:15.624Z,29.60
2018-08-23T12:10:40.055Z,29.50
2018-08-23T12:14:04.664Z,29.70
2018-08-23T12:17:29.078Z,30.20
2018-08-23T12:20:53.496Z,30.40
2018-08-23T12:24:17.969Z,30.30
2018-08-23T12:27:42.778Z,30.60
2018-08-23T12:31:07.453Z,31.10
2018-08-23T12:34:36.187Z,31.00
2018-08-23T12:38:05.877Z,31.00
2018-08-23T12:42:35.171Z,31.30
2018-08-23T12:46:04.417Z,31.30
2018-08-23T12:49:28.893Z,31.80
2018-08-23T12:52:53.411Z,32.40
2018-08-23T12:56:17.923Z,33.30
2018-08-23T12:59:42.419Z,34.00
2018-08-23T13:03:07.731Z,34.40
2018-08-23T13:06:32.132Z,34.60
2018-08-23T13:09:56.553Z,35.00
2018-08-23T13:13:20.997Z,35.50
2018-08-23T13:16:45.531Z,35.50
2018-08-23T13:20:09.957Z,36.10
2018-08-23T13:23:34.416Z,36.00
2018-08-23T13:26:58.869Z,35.90
2018-08-23T13:30:23.329Z,35.20
2018-08-23T13:33:47.773Z,35.70
2018-08-23T13:37:12.200Z,36.90
2018-08-23T13:40:36.632Z,36.80
2018-08-23T13:44:01.155Z,36.50
2018-08-23T13:47:25.532Z,37.10
2018-08-23T13:50:49.954Z,37.40
2018-08-23T13:54:14.384Z,37.90
2018-08-23T13:57:38.857Z,38.10
2018-08-23T14:01:03.302Z,38.50
2018-08-23T14:04:27.723Z,38.10
2018-08-23T14:07:52.156Z,38.10
2018-08-23T14:11:16.690Z,39.00
2018-08-23T14:14:41.814Z,38.90
2018-08-23T14:18:06.287Z,40.00
2018-08-23T14:21:30.751Z,39.80
2018-08-23T14:24:55.247Z,40.30
2018-08-23T14:28:19.825Z,39.60
2018-08-23T14:31:44.235Z,39.80
2018-08-23T14:35:08.739Z,40.60
2018-08-23T14:38:33.270Z,41.30
2018-08-23T14:41:57.665Z,41.60
2018-08-23T14:45:27.251Z,41.50
2018-08-23T14:48:51.697Z,41.80
2018-08-23T14:52:16.178Z,42.30
2018-08-23T14:55:45.770Z,41.70
2018-08-23T14:59:10.275Z,40.90
2018-08-23T15:02:34.788Z,39.60
2018-08-23T15:05:59.211Z,38.40
2018-08-23T15:09:28.010Z,37.80
2018-08-23T15:12:52.568Z,39.60
2018-08-23T15:16:17.056Z,39.70
2018-08-23T15:19:41.685Z,40.10
2018-08-23T15:23:06.489Z,39.50
2018-08-23T15:26:31.056Z,39.40
2018-08-23T15:29:55.306Z,40.60
2018-08-23T15:33:19.719Z,40.40
2018-08-23T15:36:44.185Z,39.90
2018-08-23T15:40:08.687Z,39.70
2018-08-23T15:43:33.111Z,39.90
2018-08-23T15:46:57.518Z,39.40
2018-08-23T15:50:23.545Z,39.20
2018-08-23T15:53:47.915Z,39.30
2018-08-23T15:57:12.373Z,37.40
2018-08-23T16:00:39.808Z,34.80
2018-08-23T16:04:04.390Z,33.10
2018-08-23T16:07:28.790Z,34.60
2018-08-23T16:10:53.228Z,34.60
2018-08-23T16:14:17.709Z,33.00
2018-08-23T16:17:47.300Z,33.70
2018-08-23T16:21:11.711Z,35.30
2018-08-23T16:24:36.117Z,34.40
2018-08-23T16:28:06.136Z,32.70
2018-08-23T16:31:30.769Z,31.30
2018-08-23T16:34:55.270Z,30.40
2018-08-23T16:38:19.682Z,29.90
2018-08-23T16:41:44.153Z,29.70
2018-08-23T16:45:08.665Z,29.80
2018-08-23T16:48:33.097Z,29.80
2018-08-23T16:51:57.502Z,29.60
2018-08-23T16:55:21.923Z,29.70
2018-08-23T16:58:46.345Z,30.00
2018-08-23T17:02:10.958Z,30.00
2018-08-23T17:05:35.410Z,31.20
2018-08-23T17:09:00.149Z,32.30
2018-08-23T17:12:24.525Z,32.90
2018-08-23T17:15:54.117Z,31.60
2018-08-23T17:19:18.609Z,30.10
2018-08-23T17:22:44.581Z,28.90
2018-08-23T17:26:09.033Z,28.30
2018-08-23T17:29:33.467Z,27.70
2018-08-23T17:32:57.900Z,27.30
2018-08-23T17:36:22.336Z,26.90
2018-08-23T17:39:46.774Z,26.80
2018-08-23T17:43:11.213Z,26.40
2018-08-23T17:46:35.672Z,26.20
2018-08-23T17:50:00.111Z,26.10
2018-08-23T17:53:24.553Z,25.70
2018-08-23T17:56:49.009Z,25.50
2018-08-23T18:00:13.482Z,25.40
2018-08-23T18:03:37.913Z,25.20
2018-08-23T18:07:02.369Z,25.10
2018-08-23T18:10:28.022Z,25.00
2018-08-23T18:13:52.449Z,24.80
2018-08-23T18:17:16.895Z,24.80
2018-08-23T18:20:41.296Z,24.60
2018-08-23T18:24:05.883Z,24.50
2018-08-23T18:27:30.278Z,24.30
2018-08-23T18:30:54.716Z,24.20
2018-08-23T18:34:19.178Z,24.20
2018-08-23T18:37:43.785Z,24.00
2018-08-23T18:41:08.079Z,23.80
2018-08-23T18:44:32.500Z,23.70
2018-08-23T18:47:56.943Z,23.50
2018-08-23T18:51:21.356Z,23.40
2018-08-23T18:54:45.771Z,23.30
2018-08-23T18:58:10.232Z,23.10
2018-08-23T19:01:34.679Z,23.00
2018-08-23T19:04:59.117Z,22.90
2018-08-23T19:08:23.559Z,22.60
2018-08-23T19:11:48.019Z,22.40
2018-08-23T19:15:12.554Z,22.30
2018-08-23T19:18:37.379Z,22.30
2018-08-23T19:22:02.523Z,22.20
2018-08-23T19:25:27.619Z,22.10
2018-08-23T19:28:52.798Z,22.20
2018-08-23T19:32:18.113Z,22.20
2018-08-23T19:35:42.545Z,22.10
2018-08-23T19:39:11.503Z,22.10
2018-08-23T19:42:36.078Z,22.10
2018-08-23T19:46:05.715Z,22.00
2018-08-23T19:49:35.413Z,22.00
2018-08-23T19:52:59.935Z,22.10
2018-08-23T19:56:24.428Z,22.10
2018-08-23T19:59:48.937Z,22.10
2018-08-23T20:03:13.391Z,22.10
2018-08-23T20:06:37.962Z,22.00
2018-08-23T20:10:02.392Z,22.10
2018-08-23T20:13:26.986Z,22.00
2018-08-23T20:16:51.417Z,22.00
2018-08-23T20:20:17.017Z,22.00
2018-08-23T20:23:41.480Z,22.00
2018-08-23T20:27:05.953Z,21.90
2018-08-23T20:30:30.404Z,21.90
2018-08-23T20:33:54.832Z,21.70
2018-08-23T20:37:19.301Z,21.70
2018-08-23T20:40:43.716Z,21.70
2018-08-23T20:44:08.665Z,21.70
2018-08-23T20:47:33.108Z,21.60
2018-08-23T20:50:57.580Z,21.50
2018-08-23T20:54:22.020Z,21.50
2018-08-23T20:57:46.517Z,21.50
2018-08-23T21:01:10.963Z,21.50
2018-08-23T21:04:39.279Z,21.50
2018-08-23T21:08:03.821Z,21.50
2018-08-23T21:11:28.224Z,21.50
2018-08-23T21:14:52.645Z,21.40
2018-08-23T21:18:17.053Z,21.30
2018-08-23T21:21:41.452Z,21.30
2018-08-23T21:25:05.937Z,21.20
2018-08-23T21:28:30.358Z,21.20
2018-08-23T21:31:54.784Z,21.20
2018-08-23T21:35:19.224Z,21.30
2018-08-23T21:38:43.657Z,21.30
2018-08-23T21:42:08.113Z,21.30
2018-08-23T21:45:32.528Z,21.30
2018-08-23T21:48:56.995Z,21.40
2018-08-23T21:52:21.411Z,21.40
2018-08-23T21:55:45.831Z,21.40
2018-08-23T21:59:10.393Z,21.40
2018-08-23T22:02:34.874Z,21.30
2018-08-23T22:05:59.284Z,21.40
2018-08-23T22:09:23.730Z,21.30
2018-08-23T22:12:48.180Z,21.30
2018-08-23T22:16:12.632Z,21.30
2018-08-23T22:19:37.051Z,21.30
2018-08-23T22:23:01.469Z,21.40
2018-08-23T22:26:25.933Z,21.40
2018-08-23T22:29:50.314Z,21.40
2018-08-23T22:33:14.774Z,21.30
2018-08-23T22:36:39.164Z,21.30
2018-08-23T22:40:03.591Z,21.30
2018-08-23T22:43:28.015Z,21.20
2018-08-23T22:46:52.425Z,21.20
2018-08-23T22:50:16.854Z,21.20
2018-08-23T22:53:41.376Z,21.20
2018-08-23T22:57:05.856Z,21.20
2018-08-23T23:00:35.625Z,21.20
2018-08-23T23:04:05.309Z,21.20
2018-08-23T23:07:29.729Z,21.20
2018-08-23T23:10:54.076Z,21.00
2018-08-23T23:14:18.503Z,21.00
2018-08-23T23:17:42.953Z,21.00
2018-08-23T23:21:07.348Z,21.00
2018-08-23T23:24:36.756Z,21.00
2018-08-23T23:28:01.175Z,21.00
2018-08-23T23:31:25.597Z,21.10
2018-08-23T23:34:49.987Z,21.00
2018-08-23T23:38:14.367Z,20.90
2018-08-23T23:41:38.799Z,20.80
2018-08-23T23:45:03.215Z,20.70
2018-08-23T23:48:27.662Z,20.40
2018-08-23T23:51:52.090Z,20.00
2018-08-23T23:55:16.549Z,19.60
2018-08-23T23:58:40.994Z,19.40
